Weather observations for the past three days for
La Porte Municipal Airport
Imperial (Metric)
Date Time (cdt) Wind (mph) Vis. (mi.) Weather Sky Cond. Temperature (ºF) Relative Humidity Wind Chill (°F) Heat Index (°F) Pressure Precipitation (in)
Air Dwpt 6 hour altimeter (in) sea level (mb) 1 hr 3 hr 6 hr
Max. Min.
04 18:15 S 16 10.00 Overcast SCT033 OVC047 76.1 62.8 63% 78 29.88 0.0
04 17:55 S 16 G 21 10.00 Overcast SCT033 OVC047 76.1 62.6 63% 78 29.88 0.0
04 17:35 S 16 10.00 Overcast BKN035 OVC047 76.8 62.8 62% 79 29.89 0.0
04 17:15 S 17 G 24 10.00 Overcast BKN035 OVC049 77 62.8 62% 79 29.9 0.0
04 16:55 S 16 10.00 Overcast SCT037 OVC049 77.7 62.6 60% 79 29.9 0.0
04 16:35 S 14 10.00 Overcast SCT037 OVC049 78.4 62.8 59% 80 29.91 0.0
04 16:15 S 13 G 21 10.00 Overcast SCT039 OVC049 79.2 62.6 57% 81 29.91 0.0
04 15:55 S 15 G 20 10.00 Mostly Cloudy SCT041 BKN049 79.2 62.6 57% 81 29.92 0.0
04 15:35 S 12 G 21 10.00 Overcast OVC046 80.2 62.2 54% 81 29.92 0.0
04 15:15 S 10 10.00 Overcast OVC046 80.4 62.4 54% 82 29.94 0.0
04 14:55 S 9 G 20 10.00 Mostly Cloudy BKN046 BKN050 79.7 60.8 53% 81 29.94 0.0
04 14:35 S 12 G 18 10.00 Mostly Cloudy BKN046 BKN050 79.5 61 53% 81 29.95 0.0
04 14:15 S 14 G 22 10.00 Mostly Cloudy BKN046 79.7 60.3 52% 81 29.96 0.0
04 13:55 S 14 10.00 Mostly Cloudy BKN046 80.1 60.6 52% 81 29.96 0.0
04 13:35 S 17 G 23 10.00 Partly Cloudy SCT046 SCT050 80.2 60.1 50% 81 29.95 0.0
04 13:15 S 9 G 16 10.00 Mostly Cloudy BKN046 79.7 59.9 51% 81 29.97 0.0
04 12:55 S 16 10.00 Mostly Cloudy BKN044 BKN050 79.7 60.1 80.6 60.4 51% 81 29.98 0.0 0.01
04 12:35 S 14 G 21 10.00 Mostly Cloudy BKN047 79.2 60.6 53% 80 29.98 0.0
04 12:15 S 14 10.00 Mostly Cloudy BKN044 BKN050 78.4 59.9 53% 80 29.99 0.0
04 11:55 S 13 10.00 Partly Cloudy SCT044 78.4 58.1 50% 80 30 0.0
04 11:35 S 13 10.00 Partly Cloudy SCT044 SCT050 77 57.9 52% 79 30.01 0.0
04 11:15 S 14 10.00 Partly Cloudy SCT044 SCT050 78.1 59.4 53% 79 30.01 0.0
04 10:55 S 12 G 21 10.00 Partly Cloudy SCT040 77 58.8 54% 79 30.01 0.0
04 10:35 S 14 10.00 Partly Cloudy SCT036 76.1 59.4 56% 78 30.02 0.0
04 10:15 S 12 10.00 Mostly Cloudy BKN036 74.5 59.4 59% 30.02 0.0
04 09:55 S 14 10.00 Partly Cloudy SCT036 75 59.5 59% 77 30.02 0.0 0.01
04 09:35 S 12 10.00 Fair CLR 73.9 58.8 59% 30.02 0.0
04 09:15 S 12 10.00 Fair CLR 73.4 58.3 59% 30.02 0.0
04 08:55 S 10 10.00 Fair CLR 72.5 57.6 60% 30.02 0.0 0.01
04 08:35 S 9 10.00 Fair CLR 71.8 56.7 59% 30.02 0.0
04 08:15 S 8 10.00 Fair CLR 70.5 55.6 59% 30.02 0.0
04 07:55 S 3 10.00 Fair CLR 68.7 55.2 62% 30.02 0.0
04 07:35 S 6 10.00 Fair CLR 66 55.6 69% 30.02 0.0
04 07:15 SE 5 10.00 Fair CLR 63.7 54 71% 30.01 0.0
04 06:55 S 3 10.00 Fair CLR 60.6 54 66.2 58.6 79% 30.01 0.0
04 06:35 S 3 10.00 Fair CLR 61.5 53.6 75% 30 0.0
04 06:10 Calm 10.00 Fair CLR 60.4 53.6 78% 30 0.0
04 05:55 S 3 10.00 Fair CLR 61.2 54.1 78% 30 0.0
04 05:35 Calm 10.00 Fair CLR 60.6 54.5 80% 30.01 0.0
04 05:15 SE 3 10.00 Fair CLR 60.4 54 79% 30.01 0.0
04 04:55 Calm 10.00 Fair CLR 63 53.6 72% 30.02 0.0
04 04:15 S 5 10.00 Fair CLR 65.5 52.9 64% 30.02 0.0
04 03:55 S 5 10.00 Fair CLR 65.1 52.9 65% 30.02 0.0
04 03:35 S 5 10.00 Fair CLR 65.3 52.9 64% 30.03 0.0
04 03:15 S 7 10.00 Fair CLR 65.7 52.5 63% 30.03 0.0
04 02:55 S 7 10.00 Fair CLR 65.8 52.3 62% 30.04 0.0
04 02:35 S 7 10.00 Fair CLR 65.7 52.3 62% 30.04 0.0
04 02:15 S 9 10.00 Fair CLR 65.8 52.5 62% 30.05 0.0
04 01:55 S 5 10.00 Fair CLR 64.2 52.5 66% 30.06 0.0
04 01:35 S 3 10.00 Fair CLR 65.3 51.8 62% 30.07 0.0
04 01:15 S 6 10.00 Fair CLR 64 51.8 65% 30.07 0.0
04 00:55 SE 3 10.00 Fair CLR 63.9 52 73.8 63.1 65% 30.07 0.0 0.01
04 00:35 S 6 10.00 Fair CLR 65.1 52 63% 30.08 0.0
04 00:15 S 5 10.00 Fair CLR 64.2 51.6 64% 30.08 0.0
03 23:55 S 3 10.00 Fair CLR 64.4 51.4 63% 30.09 0.0
03 23:35 S 6 10.00 Fair CLR 66 51.4 60% 30.09 0.0
03 23:15 S 6 10.00 Fair CLR 65.5 51.6 61% 30.09 0.0
03 22:55 S 6 10.00 Fair CLR 65.1 51.6 62% 30.09 0.0
03 22:35 SE 6 10.00 Fair CLR 66.2 50.9 58% 30.09 0.0
03 22:15 S 7 10.00 Fair CLR 67.1 50.5 55% 30.09 0.0
03 21:55 S 7 10.00 Fair CLR 67.3 50.5 55% 30.09 0.0 0.01
03 21:35 S 6 10.00 Fair CLR 68.2 50.4 53% 30.09 0.0
03 21:15 S 5 10.00 Fair CLR 68.7 50.4 52% 30.09 0.0
03 20:55 S 7 10.00 Fair CLR 69.6 50.2 50% 30.09 0.0 0.01
03 20:35 S 9 10.00 Fair CLR 70 49.8 49% 30.08 0.0
03 20:15 S 9 10.00 Fair CLR 70.3 49.6 48% 30.08 0.0
03 19:55 S 10 10.00 Fair CLR 70.7 49.8 48% 30.08 0.0
03 19:35 S 12 10.00 Fair CLR 71.6 49.5 46% 30.08 0.0
03 19:15 S 10 10.00 Fair CLR 72.9 48.7 43% 30.08 0.0
03 18:55 SE 13 10.00 Fair CLR 73.8 49.8 77.9 73.8 43% 30.08 0.0 0.02
03 18:35 SE 12 10.00 Fair CLR 74.7 49.1 41% 30.09 0.0
03 18:15 SE 14 10.00 Fair CLR 74.5 49.1 41% 30.09 0.0
03 17:55 SE 9 10.00 Fair CLR 74.8 49.1 40% 30.09 0.0
03 17:35 SE 10 10.00 Fair CLR 75.4 48.2 38% 78 30.1 0.0
03 17:15 SE 10 10.00 Fair CLR 75.6 49.1 39% 78 30.1 0.0
03 16:55 SE 10 10.00 Fair CLR 77.4 49.1 37% 78 30.11 0.0 0.01
03 16:35 SE 7 10.00 Fair CLR 76.6 48 37% 78 30.12 0.0 0.01
03 16:15 SE 10 10.00 Fair CLR 76.8 46.8 35% 78 30.12 0.0 0.01
03 15:55 SE 13 G 18 10.00 Fair CLR 77.2 48.7 37% 78 30.13 0.0 0.01
03 15:35 SE 10 10.00 Fair CLR 76.8 48 36% 78 30.14 0.0
03 15:15 SE 13 10.00 Fair CLR 76.5 47.8 36% 78 30.15 0.0
03 14:55 SE 9 G 17 10.00 Fair CLR 77.2 48.4 36% 78 30.16 0.0
03 14:35 S 8 10.00 Fair CLR 76.8 46.6 34% 78 30.17 0.0
03 14:15 S 8 10.00 Fair CLR 76.1 45.5 34% 78 30.18 0.0
03 13:35 SE 8 10.00 Fair CLR 76.5 44.8 32% 78 30.19 0.0
03 13:15 SE 7 10.00 Fair CLR 75.9 43.9 32% 77 30.2 0.0
03 12:55 SE 8 10.00 Fair CLR 75.7 42.1 76.6 54.3 30% 77 30.21 0.0 0.01 0.08
03 12:35 N 5 10.00 Fair CLR 75.2 43 32% 77 30.22 0.0
03 12:15 S 7 10.00 Fair CLR 75.9 44.6 33% 77 30.22 0.0
03 11:55 SE 10 10.00 Fair CLR 75.6 45 34% 77 30.22 0.0 0.02
03 11:35 SE 10 10.00 Fair CLR 75.4 46.4 36% 77 30.22 0.0 0.01
03 11:15 SE 8 10.00 Fair CLR 75 45.7 35% 77 30.22 0.0 0.01
03 10:55 S 12 10.00 Fair CLR 74.8 45.7 36% 30.22 0.0 0.01
03 10:35 E 10 10.00 Fair CLR 74.1 43.2 33% 30.22 0.0 0.01
03 10:15 SE 9 10.00 Fair CLR 73.9 43.5 34% 30.22 0.0
03 09:55 E 7 10.00 Fair CLR 73.8 48 40% 30.21 0.0 0.02 0.04
03 09:35 E 6 10.00 Fair CLR 73.2 47.1 40% 30.21 0.0 0.02
03 09:15 SE 6 10.00 Fair CLR 72.3 54 53% 30.2 0.0 0.01
03 08:55 SE 3 10.00 Fair CLR 69.8 58.6 68% 30.2 0.0 0.01
03 08:35 Calm 7.00 Fair CLR 67.8 59.5 75% 30.2 0.0 0.01
03 08:15 Calm 10.00 Fair CLR 64.8 57.6 78% 30.2 0.0
03 07:35 Calm 10.00 Fair CLR 57.9 55.4 91% 30.19 0.0
03 07:15 Calm 10.00 Fair CLR 55.4 53.8 94% 30.19 0.0
03 06:55 Calm 10.00 Fair CLR 54.3 53.1 59.4 53.4 96% 30.18 0.0 0.02 0.09
03 06:35 Calm 10.00 Fair CLR 53.6 52.3 96% 30.18 0.0 0.01
03 06:15 Calm 10.00 Fair CLR 54.1 52.9 96% 30.17 0.0 0.01
03 05:55 Calm 10.00 Fair CLR 54.5 53.1 95% 30.16 0.0 0.01
03 05:35 Calm 10.00 Fair CLR 55.4 54.1 96% 30.16 0.0 0.01
03 05:15 Calm 10.00 Fair CLR 54.9 53.6 96% 30.16 0.0
03 04:55 Calm 10.00 Fair CLR 56.1 54.5 94% 30.16 0.0 0.02
03 04:35 Calm 10.00 Fair CLR 56.7 54.1 91% 30.15 0.0 0.01
03 04:15 Calm 10.00 Fair CLR 56.5 53.2 89% 30.15 0.0 0.01
03 03:55 Calm 10.00 Fair CLR 57.6 54.1 88% 30.15 0.0 0.01 0.04
03 03:35 Calm 10.00 Fair CLR 57.4 54.3 90% 30.16 0.0 0.01
03 03:15 Calm 10.00 Fair CLR 57.7 55 91% 30.16 0.0
03 02:55 Calm 10.00 Fair CLR 58.3 54.9 88% 30.15 0.0 0.02
03 02:35 Calm 10.00 Fair CLR 58.6 55.4 89% 30.15 0.0 0.01
03 02:15 NE 3 10.00 Fair CLR 58.3 55.2 90% 30.15 0.0 0.01
03 01:55 NE 3 10.00 Fair CLR 58.3 55 89% 30.15 0.0 0.01
03 01:15 Calm 10.00 Fair CLR 58.8 54.7 86% 30.16 0.0
03 00:55 Calm 10.00 Fair CLR 59 54.1 73.4 58.8 84% 30.16 0.0 0.01 0.03
03 00:35 Calm 10.00 Fair CLR 59.9 55.2 85% 30.15 0.0 0.01
03 00:15 Calm 10.00 Fair CLR 59.9 54.3 82% 30.15 0.0
02 23:55 Calm 10.00 Fair CLR 61.9 55.4 79% 30.15 0.0
02 23:35 Calm 10.00 Fair CLR 62.1 55.8 80% 30.14 0.0
02 23:15 Calm 10.00 Fair CLR 64.4 53.6 68% 30.14 0.0
02 22:55 Calm 10.00 Fair CLR 64.9 53.2 66% 30.14 0.0 0.01
02 22:35 E 3 10.00 Fair CLR 64.9 51.6 62% 30.13 0.0 0.01
02 22:15 NE 5 10.00 Fair CLR 67.6 49.5 52% 30.13 0.0
02 21:55 NE 5 10.00 Fair CLR 68.5 50.9 53% 30.13 0.0 0.01
02 21:35 E 5 10.00 Fair CLR 65.8 51.8 61% 30.12 0.0
02 21:15 Calm 10.00 Fair CLR 67.6 52 57% 30.12 0.0
02 20:55 N 3 10.00 Fair CLR 69.4 50.2 51% 30.11 0.0
02 20:35 N 5 10.00 Fair CLR 70 49.1 48% 30.1 0.0
02 20:15 N 5 10.00 Fair CLR 70.5 48.4 46% 30.1 0.0
02 19:55 N 6 10.00 Fair CLR 70.7 48.4 45% 30.09 0.0 0.01
02 19:35 NE 8 10.00 Fair CLR 71.6 47.8 43% 30.09 0.0 0.01
02 19:15 N 9 10.00 Fair CLR 72.9 47.7 41% 30.08 0.0
02 18:55 NE 9 10.00 Fair CLR 73.4 47.1 75.2 70.2 39% 30.08 0.0 0.04
02 18:35 NE 10 10.00 Fair CLR 73.8 46.9 39% 30.07 0.0
02 18:15 N 9 10.00 Fair CLR 74.3 47.5 39% 30.07 0.0
02 17:55 N 9 10.00 Fair CLR 74.5 47.1 38% 30.07 0.0
02 17:35 N 9 G 17 10.00 Fair CLR 74.5 48.9 41% 30.07 0.0
02 17:15 N 12 10.00 Fair CLR 74.5 48.2 40% 30.07 0.0
02 16:55 N 12 G 17 10.00 Fair CLR 74.3 46.9 38% 30.07 0.0 0.01
02 16:35 N 9 10.00 Fair CLR 74.5 48.9 41% 30.08 0.0
02 16:15 NE 8 10.00 Fair CLR 73.6 45.9 37% 30.08 0.0
02 15:55 NE 7 10.00 Fair CLR 74.3 48.2 40% 30.08 0.0 0.01 0.03
02 15:35 NE 10 G 20 10.00 Fair CLR 73.4 46.4 38% 30.08 0.0 0.01
02 15:15 N 12 10.00 Fair CLR 73.4 47.5 40% 30.1 0.0
02 14:55 N 10 G 17 10.00 Fair CLR 72.7 46.4 39% 30.1 0.0 0.01
02 14:35 NE 12 G 16 10.00 Fair CLR 72.9 48.9 43% 30.11 0.0 0.01
02 14:15 NE 14 G 18 10.00 Fair CLR 72 47.8 42% 30.11 0.0
02 13:35 N 14 G 20 10.00 Fair CLR 70.9 49.8 47% 30.12 0.0 0.01
02 13:15 N 13 10.00 Fair CLR 70.5 50 48% 30.13 0.0
02 12:55 N 14 G 22 10.00 Fair CLR 70 49.1 70.3 55 48% 30.13 0.0 0.01 0.03
02 12:35 NE 16 G 23 10.00 Fair CLR 69.6 47.5 45% 30.14 0.0
02 12:15 N 15 10.00 Fair CLR 69.1 48.4 48% 30.14 0.0
02 11:55 NE 13 G 20 10.00 Fair CLR 68.5 50.5 53% 30.14 0.0 0.01
02 11:35 NE 15 G 22 10.00 Fair CLR 68.2 49.3 51% 30.14 0.0 0.01
02 11:15 N 12 G 20 10.00 Fair CLR 67.3 50.9 56% 30.14 0.0
02 10:55 N 12 G 17 10.00 Fair CLR 66.4 53.2 63% 30.14 0.0
02 10:35 N 14 G 18 10.00 Fair CLR 64.9 52.2 63% 30.14 0.0
02 10:15 NE 10 10.00 Fair CLR 63.5 53.1 69% 30.13 0.0
02 09:55 NE 12 G 18 10.00 Fair CLR 62.4 52.9 71% 30.14 0.0 0.01
02 09:35 N 12 10.00 Fair CLR 61.5 53.1 74% 30.13 0.0
02 09:15 N 9 10.00 Fair CLR 60.8 54.1 79% 30.13 0.0
02 08:55 N 10 10.00 Fair CLR 59 53.4 82% 30.12 0.0
02 08:35 N 10 10.00 Fair CLR 58.6 53.4 83% 30.12 0.0
02 07:55 N 10 10.00 Partly Cloudy SCT009 56.5 52.5 87% 30.09 0.0 0.01
02 07:35 N 12 10.00 Partly Cloudy SCT011 55.8 52.5 89% 30.08 0.0 0.01
02 07:15 N 8 10.00 Partly Cloudy SCT011 55.2 51.8 88% 30.08 0.0
02 06:55 N 10 10.00 Partly Cloudy SCT011 54.9 51.4 57.6 54.5 88% 30.07 0.0 0.04
02 06:35 N 9 10.00 Partly Cloudy SCT011 54.5 51.4 89% 30.07 0.0
02 06:15 N 8 10.00 Partly Cloudy SCT013 54.7 51.1 88% 30.06 0.0
02 05:55 N 9 10.00 Fair CLR 54.9 51.1 87% 30.05 0.0
02 05:35 N 7 10.00 Fair CLR 54.7 51.3 88% 30.04 0.0
02 05:15 N 9 10.00 Fair CLR 55.9 50.4 82% 30.03 0.0
02 04:55 NE 8 10.00 Fair CLR 55.8 49.3 79% 30.01 0.0 0.01
02 04:35 NE 12 10.00 Fair CLR 55.4 49.3 80% 30.01 0.0
02 04:15 NE 15 G 18 10.00 Fair CLR 55.2 49.5 81% 30.01 0.0
02 03:55 NE 13 G 17 10.00 Partly Cloudy SCT016 55.6 50 82% 30 0.0 0.01 0.03
02 03:35 NE 10 10.00 Mostly Cloudy BKN016 55.4 50.5 84% 30.01 0.0 0.01
02 03:15 NE 10 10.00 Overcast OVC016 55.9 50.9 83% 30.01 0.0
02 02:55 NE 14 G 20 10.00 Overcast BKN016 OVC050 55.9 51.6 86% 30 0.0 0.01
02 02:35 NE 12 G 18 10.00 Overcast BKN014 BKN021 OVC050 56.3 52 86% 30 0.0 0.01
02 02:15 NE 15 10.00 Overcast OVC012 57 53.6 88% 30.01 0.0
02 01:55 NE 14 G 21 10.00 Overcast OVC012 57.2 53.1 86% 30 0.0 0.01
02 01:35 NE 12 G 21 10.00 Overcast OVC010 57.2 53.4 87% 29.99 0.0 0.01
02 01:15 NE 14 G 25 10.00 Overcast OVC010 57.2 54 89% 29.99 0.0
02 00:55 NE 13 G 20 10.00 Overcast OVC010 57.4 54.3 59.9 56.5 90% 29.99 0.0 0.01 0.12
02 00:35 NE 13 G 18 10.00 Overcast OVC012 57.2 54 89% 30 0.0 0.01
02 00:15 NE 17 10.00 Overcast OVC010 57.2 54 89% 30 0.0
01 23:55 N 14 10.00 Overcast OVC010 57 54 90% 30 0.0 0.01
01 23:35 N 13 G 22 10.00 Overcast OVC010 56.8 54.1 91% 30 0.0 0.01
01 23:15 N 8 G 25 10.00 Overcast OVC010 56.7 54 91% 30 0.0
01 22:55 N 15 G 22 10.00 Overcast OVC010 56.5 54 91% 29.98 0.0 0.01
01 22:35 N 15 G 21 10.00 Overcast OVC008 56.7 54.7 93% 29.96 0.0 0.01
01 22:15 N 13 G 23 10.00 Light Rain BKN010 OVC017 57.2 55.4 94% 29.94 0.0
01 21:55 NE 16 G 24 10.00 Light Drizzle BKN010 OVC017 57.6 55.6 93% 29.94 0.0 0.03 0.08
01 21:35 N 12 10.00 Light Rain OVC010 58.1 56.1 93% 29.95 0.0 0.02
01 21:15 N 10 10.00 Light Rain OVC010 58.6 56.7 93% 29.95 0.0 0.01
01 20:55 N 8 10.00 Light Rain OVC010 59 57 93% 29.93 0.0 0.02
01 20:35 N 13 G 21 10.00 Light Rain OVC008 59 57.2 94% 29.91 0.0 0.02
01 20:15 N 10 G 20 10.00 Light Rain OVC008 59.2 57.6 94% 29.9 0.0 0.01
01 19:55 NE 12 G 21 4.00 Light Rain Fog/Mist BKN008 OVC011 59.4 57.9 95% 29.86 0.0 0.03
01 19:35 NE 13 G 18 3.00 Thunderstorm Light Rain in Vicinity Fog/Mist BKN010 OVC015 59.2 57.6 94% 29.87 0.0 0.02
01 19:15 N 15 G 22 3.00 Thunderstorm Light Rain in Vicinity Fog/Mist BKN010 BKN040 OVC070 59.5 57.6 93% 29.86 0.0 0.01
01 18:55 NE 16 G 20 2.50 Rain Fog/Mist SCT007 BKN010 OVC070 59.7 58.1 63.5 59.7 94% 29.84 0.0 0.04 0.26
01 18:35 N 13 G 21 5.00 Light Rain Fog/Mist BKN010 OVC013 60.6 58.6 93% 29.85 0.0 0.03
Date Time (cdt) Wind (mph) Vis. (mi.) Weather Sky Cond. Air Dwpt Max. Min. Relative Humidity Wind Chill (°F) Heat Index (°F) altimeter (in) sea level (mb) 1 hr 3 hr 6 hr
6 hour
Temperature (ºF) Pressure Precipitation (in)